createdAt,value
2022-11-07T00:02:20.178Z,95351.69
2022-11-07T00:04:49.137Z,95336.34
2022-11-07T00:07:17.861Z,95354.06
2022-11-07T00:09:46.306Z,95328.72
2022-11-07T00:12:14.754Z,95362.75
2022-11-07T00:14:44.095Z,95351.16
2022-11-07T00:17:12.661Z,95359.41
2022-11-07T00:19:41.224Z,95365.75
2022-11-07T00:22:10.176Z,95360.13
2022-11-07T00:24:38.365Z,95367.94
2022-11-07T00:27:06.768Z,95352.34
2022-11-07T00:29:34.876Z,95355.22
2022-11-07T00:32:05.147Z,95346.41
2022-11-07T00:34:35.314Z,95357.22
2022-11-07T00:37:05.951Z,95361.25
2022-11-07T00:39:34.665Z,95359.84
2022-11-07T00:42:02.832Z,95356.38
2022-11-07T00:44:31.444Z,95365.91
2022-11-07T00:46:59.907Z,95364.59
2022-11-07T00:49:29.527Z,95353.19
2022-11-07T00:51:58.779Z,95351.69
2022-11-07T00:54:27.038Z,95358.94
2022-11-07T00:56:55.221Z,95362.28
2022-11-07T00:59:23.407Z,95337.44
2022-11-07T01:01:52.189Z,95357.41
2022-11-07T01:04:38.012Z,95347.78
2022-11-07T01:07:08.337Z,95352.56
2022-11-07T01:09:39.153Z,95363.38
2022-11-07T01:12:08.314Z,95349.44
2022-11-07T01:14:37.194Z,95347.50
2022-11-07T01:17:05.419Z,95345.66
2022-11-07T01:19:33.632Z,95358.41
2022-11-07T01:22:02.051Z,95342.94
2022-11-07T01:24:31.826Z,95347.94
2022-11-07T01:27:00.603Z,95341.19
2022-11-07T01:29:30.209Z,95339.38
2022-11-07T01:31:58.939Z,95336.97
2022-11-07T01:34:27.157Z,95332.56
2022-11-07T01:36:55.740Z,95321.22
2022-11-07T01:39:24.008Z,95330.69
2022-11-07T01:41:53.719Z,95307.41
2022-11-07T01:45:01.089Z,95338.00
2022-11-07T01:47:35.843Z,95344.94
2022-11-07T01:50:05.018Z,95349.72
2022-11-07T01:52:36.379Z,95334.59
2022-11-07T01:55:10.282Z,95325.63
2022-11-07T01:57:44.137Z,95308.53
2022-11-07T02:00:16.953Z,95326.88
2022-11-07T02:02:46.721Z,95293.84
2022-11-07T02:05:21.286Z,95338.56
2022-11-07T02:07:49.787Z,95333.38
2022-11-07T02:10:19.874Z,95339.66
2022-11-07T02:12:49.792Z,95340.31
2022-11-07T02:15:18.408Z,95348.09
2022-11-07T02:17:46.739Z,95348.31
2022-11-07T02:20:15.637Z,95346.59
2022-11-07T02:22:51.128Z,95353.16
2022-11-07T02:25:21.588Z,95340.31
2022-11-07T02:27:53.546Z,95340.09
2022-11-07T02:30:24.630Z,95323.91
2022-11-07T02:32:53.266Z,95305.97
2022-11-07T02:35:38.377Z,95344.63
2022-11-07T02:38:10.187Z,95354.72
2022-11-07T02:40:41.230Z,95357.91
2022-11-07T02:43:12.968Z,95337.69
2022-11-07T02:45:44.822Z,95346.13
2022-11-07T02:48:12.902Z,95350.09
2022-11-07T02:50:41.555Z,95349.09
2022-11-07T02:53:10.269Z,95343.16
2022-11-07T02:55:40.286Z,95352.34
2022-11-07T02:58:08.364Z,95351.06
2022-11-07T03:00:36.553Z,95364.03
2022-11-07T03:03:04.705Z,95355.50
2022-11-07T03:05:34.151Z,95315.47
2022-11-07T03:08:02.455Z,95364.25
2022-11-07T03:10:31.755Z,95354.22
2022-11-07T03:13:08.598Z,95363.28
2022-11-07T03:15:36.713Z,95350.34
2022-11-07T03:18:05.353Z,95308.16
2022-11-07T03:20:33.855Z,95357.69
2022-11-07T03:23:02.030Z,95355.41
2022-11-07T03:25:30.091Z,95359.31
2022-11-07T03:27:58.612Z,95367.53
2022-11-07T03:30:28.113Z,95366.75
2022-11-07T03:32:57.034Z,95356.53
2022-11-07T03:35:25.211Z,95338.06
2022-11-07T03:37:53.441Z,95364.00
2022-11-07T03:40:21.978Z,95377.69
2022-11-07T03:42:50.318Z,95377.16
2022-11-07T03:45:18.928Z,95384.84
2022-11-07T03:47:49.082Z,95394.47
2022-11-07T03:50:19.897Z,95376.75
2022-11-07T03:52:50.311Z,95402.47
2022-11-07T03:55:19.753Z,95405.84
2022-11-07T03:57:48.477Z,95404.31
2022-11-07T04:00:17.982Z,95397.06
2022-11-07T04:02:46.861Z,95406.50
2022-11-07T04:05:16.618Z,95408.63
2022-11-07T04:07:45.047Z,95412.75
2022-11-07T04:10:13.629Z,95411.97
2022-11-07T04:13:00.245Z,95388.00
2022-11-07T04:15:45.955Z,95423.44
2022-11-07T04:18:14.386Z,95423.00
2022-11-07T04:20:44.387Z,95422.56
2022-11-07T04:23:13.108Z,95437.50
2022-11-07T04:25:58.773Z,95435.88
2022-11-07T04:28:26.973Z,95431.34
2022-11-07T04:30:55.129Z,95428.63
2022-11-07T04:33:24.775Z,95408.22
2022-11-07T04:35:55.750Z,95418.16
2022-11-07T04:38:24.389Z,95428.94
2022-11-07T04:40:58.746Z,95436.28
2022-11-07T04:43:29.058Z,95412.63
2022-11-07T04:45:57.641Z,95426.91
2022-11-07T04:48:26.013Z,95432.19
2022-11-07T04:50:57.771Z,95429.69
2022-11-07T04:53:26.123Z,95431.97
2022-11-07T04:55:54.436Z,95434.97
2022-11-07T04:58:22.693Z,95437.81
2022-11-07T05:00:50.712Z,95442.16
2022-11-07T05:03:19.704Z,95443.22
2022-11-07T05:05:48.294Z,95435.94
2022-11-07T05:08:19.278Z,95438.41
2022-11-07T05:10:47.597Z,95441.41
2022-11-07T05:13:15.896Z,95435.38
2022-11-07T05:15:44.307Z,95444.69
2022-11-07T05:18:13.247Z,95453.13
2022-11-07T05:20:42.743Z,95446.16
2022-11-07T05:23:16.216Z,95441.56
2022-11-07T05:25:48.263Z,95460.06
2022-11-07T05:28:23.423Z,95430.97
2022-11-07T05:31:00.110Z,95415.31
2022-11-07T05:33:28.646Z,95457.78
2022-11-07T05:35:57.021Z,95417.50
2022-11-07T05:38:25.015Z,95471.63
2022-11-07T05:40:54.793Z,95433.06
2022-11-07T05:43:23.220Z,95476.75
2022-11-07T05:45:52.754Z,95477.94
2022-11-07T05:48:21.111Z,95485.81
2022-11-07T05:50:49.522Z,95485.59
2022-11-07T05:53:18.515Z,95490.25
2022-11-07T05:55:46.782Z,95488.75
2022-11-07T05:58:16.498Z,95487.09
2022-11-07T06:00:44.714Z,95476.91
2022-11-07T06:03:14.910Z,95429.56
2022-11-07T06:05:44.189Z,95492.78
2022-11-07T06:08:15.429Z,95503.41
2022-11-07T06:10:45.041Z,95506.56
2022-11-07T06:13:18.098Z,95495.72
2022-11-07T06:15:48.410Z,95492.03
2022-11-07T06:18:18.840Z,95513.53
2022-11-07T06:20:47.538Z,95502.66
2022-11-07T06:23:16.489Z,95500.16
2022-11-07T06:25:44.847Z,95514.97
2022-11-07T06:28:14.829Z,95523.19
2022-11-07T06:30:46.300Z,95490.41
2022-11-07T06:33:17.083Z,95507.59
2022-11-07T06:35:46.921Z,95523.59
2022-11-07T06:38:16.258Z,95519.06
2022-11-07T06:40:44.992Z,95523.16
2022-11-07T06:43:15.467Z,95532.69
2022-11-07T06:45:46.701Z,95494.41
2022-11-07T06:48:16.812Z,95536.53
2022-11-07T06:50:52.395Z,95537.88
2022-11-07T06:53:21.242Z,95530.81
2022-11-07T06:55:49.616Z,95529.94
2022-11-07T06:58:17.887Z,95540.69
2022-11-07T07:00:47.543Z,95543.09
2022-11-07T07:03:17.005Z,95553.25
2022-11-07T07:05:45.576Z,95536.66
2022-11-07T07:08:15.105Z,95540.31
2022-11-07T07:10:45.999Z,95489.25
2022-11-07T07:13:15.296Z,95540.59
2022-11-07T07:15:51.556Z,95546.03
2022-11-07T07:18:22.504Z,95542.63
2022-11-07T07:20:53.126Z,95541.31
2022-11-07T07:23:22.405Z,95541.78
2022-11-07T07:25:53.144Z,95549.19
2022-11-07T07:28:22.348Z,95551.69
2022-11-07T07:30:53.443Z,95549.84
2022-11-07T07:33:23.069Z,95547.84
2022-11-07T07:35:52.686Z,95556.00
2022-11-07T07:38:21.100Z,95560.84
2022-11-07T07:40:49.867Z,95555.50
2022-11-07T07:43:18.261Z,95554.94
2022-11-07T07:45:47.095Z,95556.06
2022-11-07T07:48:15.710Z,95565.75
2022-11-07T07:50:45.673Z,95556.00
2022-11-07T07:53:14.140Z,95548.59
2022-11-07T07:55:42.549Z,95553.31
2022-11-07T07:58:11.155Z,95548.47
2022-11-07T08:00:39.859Z,95557.59
2022-11-07T08:03:10.338Z,95559.16
2022-11-07T08:05:39.590Z,95553.19
2022-11-07T08:08:10.162Z,95548.09
2022-11-07T08:10:44.346Z,95548.72
2022-11-07T08:13:12.534Z,95539.34
2022-11-07T08:15:40.709Z,95537.91
2022-11-07T08:18:08.791Z,95522.66
2022-11-07T08:20:36.841Z,95544.41
2022-11-07T08:23:15.792Z,95545.25
2022-11-07T08:25:52.068Z,95544.63
2022-11-07T08:28:21.165Z,95544.63
2022-11-07T08:30:56.869Z,95553.06
2022-11-07T08:33:25.197Z,95551.22
2022-11-07T08:35:56.898Z,95555.50
2022-11-07T08:38:26.358Z,95549.66
2022-11-07T08:40:56.195Z,95548.41
2022-11-07T08:43:24.651Z,95554.00
2022-11-07T08:45:55.308Z,95558.56
2022-11-07T08:48:24.578Z,95552.81
2022-11-07T08:50:54.876Z,95554.47
2022-11-07T08:53:24.078Z,95547.06
2022-11-07T08:55:52.286Z,95544.66
2022-11-07T08:58:24.744Z,95540.44
2022-11-07T09:00:59.582Z,95550.84
2022-11-07T09:03:45.087Z,95547.69
2022-11-07T09:06:14.865Z,95541.34
2022-11-07T09:08:43.059Z,95498.75
2022-11-07T09:11:19.437Z,95546.91
2022-11-07T09:13:49.593Z,95543.13
2022-11-07T09:16:18.396Z,95542.16
2022-11-07T09:18:49.287Z,95542.72
2022-11-07T09:21:22.670Z,95531.19
2022-11-07T09:23:52.517Z,95538.94
2022-11-07T09:26:22.029Z,95534.63
2022-11-07T09:28:56.030Z,95525.72
2022-11-07T09:31:28.342Z,95518.97
2022-11-07T09:33:56.445Z,95519.03
2022-11-07T09:36:27.052Z,95518.78
2022-11-07T09:38:57.380Z,95509.81
2022-11-07T09:41:34.660Z,95509.50
2022-11-07T09:44:30.601Z,95499.56
2022-11-07T09:47:08.320Z,95511.34
2022-11-07T09:49:40.193Z,95505.59
2022-11-07T09:52:18.423Z,95432.75
2022-11-07T09:54:52.480Z,95487.75
2022-11-07T09:57:21.410Z,95495.31
2022-11-07T09:59:56.626Z,95467.81
2022-11-07T10:02:27.859Z,95490.94
2022-11-07T10:04:59.437Z,95493.41
2022-11-07T10:07:41.613Z,95498.06
2022-11-07T10:10:19.775Z,95495.28
2022-11-07T10:13:04.882Z,95476.03
2022-11-07T10:15:49.044Z,95443.81
2022-11-07T10:18:28.953Z,95489.63
2022-11-07T10:21:37.064Z,95497.44
2022-11-07T10:24:12.599Z,95471.47
2022-11-07T10:26:43.361Z,95472.66
2022-11-07T10:29:16.072Z,95436.13
2022-11-07T10:31:53.027Z,95466.56
2022-11-07T10:34:28.526Z,95468.16
2022-11-07T10:36:56.642Z,95472.66
2022-11-07T10:39:26.807Z,95415.16
2022-11-07T10:42:05.689Z,95447.75
2022-11-07T10:44:35.349Z,95455.66
2022-11-07T10:47:16.305Z,95450.22
2022-11-07T10:49:55.428Z,95448.13
2022-11-07T10:52:25.114Z,95386.00
2022-11-07T10:54:53.309Z,95448.34
2022-11-07T10:57:24.782Z,95441.94
2022-11-07T10:59:58.041Z,95438.25
2022-11-07T11:02:31.905Z,95434.81
2022-11-07T11:05:02.634Z,95433.84
2022-11-07T11:07:36.583Z,95419.13
2022-11-07T11:10:07.279Z,95423.97
2022-11-07T11:12:38.602Z,95422.94
2022-11-07T11:15:12.361Z,95409.66
2022-11-07T11:17:42.186Z,95416.53
2022-11-07T11:20:35.867Z,95412.09
2022-11-07T11:23:07.089Z,95407.13
2022-11-07T11:25:48.093Z,95394.63
2022-11-07T11:28:25.734Z,95398.00
2022-11-07T11:31:02.456Z,95397.88
2022-11-07T11:33:39.280Z,95396.56
2022-11-07T11:36:13.398Z,95389.63
2022-11-07T11:38:42.370Z,95394.34
2022-11-07T11:41:19.932Z,95379.44
2022-11-07T11:43:53.569Z,95382.47
2022-11-07T11:46:29.259Z,95379.19
2022-11-07T11:49:06.505Z,95386.97
2022-11-07T11:51:41.878Z,95374.69
2022-11-07T11:54:11.746Z,95377.16
2022-11-07T11:56:49.467Z,95367.75
2022-11-07T11:59:45.783Z,95354.97
2022-11-07T12:02:48.088Z,95366.97
2022-11-07T12:05:26.952Z,95377.16
2022-11-07T12:08:09.196Z,95370.50
2022-11-07T12:10:45.295Z,95344.50
2022-11-07T12:13:22.653Z,95357.38
2022-11-07T12:16:08.379Z,95345.50
2022-11-07T12:18:44.995Z,95343.31
2022-11-07T12:21:29.833Z,95298.53
2022-11-07T12:24:18.043Z,95345.09
2022-11-07T12:26:53.607Z,95345.66
2022-11-07T12:29:33.686Z,95304.56
2022-11-07T12:32:18.914Z,95252.84
2022-11-07T12:35:05.111Z,95339.16
2022-11-07T12:38:00.231Z,95329.16
2022-11-07T12:40:45.859Z,95311.41
2022-11-07T12:43:27.218Z,95333.59
2022-11-07T12:45:59.684Z,95340.66
2022-11-07T12:49:11.674Z,95326.78
2022-11-07T12:51:51.155Z,95316.22
2022-11-07T12:54:48.204Z,95332.88
2022-11-07T12:57:20.723Z,95319.75
2022-11-07T12:59:58.302Z,95335.72
2022-11-07T13:02:38.829Z,95278.22
2022-11-07T13:05:21.486Z,95328.00
2022-11-07T13:07:56.277Z,95325.22
2022-11-07T13:10:34.786Z,95320.59
2022-11-07T13:13:09.484Z,95340.31
2022-11-07T13:16:08.865Z,95334.91
2022-11-07T13:18:29.161Z,95329.38
2022-11-07T13:21:01.625Z,95328.44
2022-11-07T13:23:31.089Z,95329.72
2022-11-07T13:26:10.710Z,95326.66
2022-11-07T13:28:59.600Z,95341.59
2022-11-07T13:31:37.129Z,95334.78
2022-11-07T13:34:12.623Z,95338.47
2022-11-07T13:36:41.003Z,95336.00
2022-11-07T13:39:13.614Z,95345.00
2022-11-07T13:41:47.487Z,95342.03
2022-11-07T13:44:23.060Z,95342.03
2022-11-07T13:46:54.037Z,95335.03
2022-11-07T13:49:26.132Z,95347.25
2022-11-07T13:51:56.662Z,95329.78
2022-11-07T13:54:29.256Z,95343.53
2022-11-07T13:57:04.696Z,95341.16
2022-11-07T13:59:45.406Z,95328.78
2022-11-07T14:02:21.115Z,95299.13
2022-11-07T14:05:18.598Z,95348.19
2022-11-07T14:07:44.893Z,95344.31
2022-11-07T14:10:22.967Z,95351.16
2022-11-07T14:12:57.097Z,95340.78
2022-11-07T14:15:25.279Z,95347.69
2022-11-07T14:17:55.887Z,95291.53
2022-11-07T14:20:24.309Z,95345.69
2022-11-07T14:22:55.172Z,95346.38
2022-11-07T14:25:28.958Z,95348.56
2022-11-07T14:27:59.019Z,95341.03
2022-11-07T14:30:29.913Z,95353.44
2022-11-07T14:32:59.571Z,95351.41
2022-11-07T14:35:29.873Z,95352.22
2022-11-07T14:37:58.604Z,95353.72
2022-11-07T14:40:29.042Z,95353.72
2022-11-07T14:42:58.583Z,95312.31
2022-11-07T14:46:05.710Z,95358.66
2022-11-07T14:48:19.529Z,95365.72
2022-11-07T14:50:49.673Z,95362.44
2022-11-07T14:53:25.577Z,95357.91
2022-11-07T14:55:55.444Z,95370.56
2022-11-07T14:58:26.855Z,95360.66
2022-11-07T15:00:57.726Z,95360.00
2022-11-07T15:03:33.751Z,95371.47
2022-11-07T15:06:02.488Z,95367.22
2022-11-07T15:08:32.707Z,95375.34
2022-11-07T15:11:05.040Z,95371.50
2022-11-07T15:13:36.021Z,95347.47
2022-11-07T15:16:08.310Z,95367.13
2022-11-07T15:18:43.064Z,95368.75
2022-11-07T15:21:14.717Z,95371.00
2022-11-07T15:23:43.027Z,95370.31
2022-11-07T15:26:15.706Z,95381.91
2022-11-07T15:28:50.525Z,95372.66
2022-11-07T15:31:24.179Z,95376.09
2022-11-07T15:33:53.763Z,95378.91
2022-11-07T15:36:22.160Z,95383.84
2022-11-07T15:38:50.923Z,95363.16
2022-11-07T15:41:19.563Z,95374.84
2022-11-07T15:43:49.228Z,95394.84
2022-11-07T15:46:25.888Z,95389.53
2022-11-07T15:48:54.565Z,95367.72
2022-11-07T15:51:23.080Z,95398.66
2022-11-07T15:53:51.498Z,95387.53
2022-11-07T15:56:23.304Z,95403.28
2022-11-07T15:58:54.074Z,95408.13
2022-11-07T16:01:22.303Z,95408.13
2022-11-07T16:03:50.343Z,95399.59
2022-11-07T16:06:25.271Z,95404.59
2022-11-07T16:08:54.059Z,95408.28
2022-11-07T16:11:22.667Z,95420.41
2022-11-07T16:13:59.226Z,95423.78
2022-11-07T16:16:38.048Z,95412.63
2022-11-07T16:19:09.097Z,95412.81
2022-11-07T16:21:37.237Z,95425.34
2022-11-07T16:24:06.263Z,95435.56
2022-11-07T16:26:34.318Z,95443.91
2022-11-07T16:29:03.712Z,95449.97
2022-11-07T16:31:32.763Z,95447.41
2022-11-07T16:34:01.728Z,95452.84
2022-11-07T16:36:36.404Z,95460.09
2022-11-07T16:39:07.622Z,95455.41
2022-11-07T16:41:36.183Z,95459.34
2022-11-07T16:44:05.945Z,95454.09
2022-11-07T16:46:37.356Z,95470.22
2022-11-07T16:49:15.770Z,95473.72
2022-11-07T16:51:46.412Z,95473.44
2022-11-07T16:54:14.923Z,95464.66
2022-11-07T16:56:43.198Z,95443.69
2022-11-07T16:59:20.811Z,95479.16
2022-11-07T17:01:49.987Z,95478.53
2022-11-07T17:04:18.531Z,95487.00
2022-11-07T17:06:49.453Z,95473.88
2022-11-07T17:09:20.707Z,95489.72
2022-11-07T17:11:49.235Z,95470.66
2022-11-07T17:14:19.023Z,95486.34
2022-11-07T17:16:49.662Z,95475.50
2022-11-07T17:19:18.206Z,95445.56
2022-11-07T17:21:49.693Z,95442.22
2022-11-07T17:24:18.640Z,95483.56
2022-11-07T17:26:46.676Z,95480.84
2022-11-07T17:29:15.215Z,95476.31
2022-11-07T17:31:44.849Z,95475.72
2022-11-07T17:34:15.871Z,95466.34
2022-11-07T17:36:47.696Z,95473.56
2022-11-07T17:39:17.391Z,95462.25
2022-11-07T17:41:47.154Z,95470.78
2022-11-07T17:44:15.637Z,95468.09
2022-11-07T17:46:49.229Z,95441.50
2022-11-07T17:49:22.235Z,95478.59
2022-11-07T17:51:52.866Z,95494.25
2022-11-07T17:54:24.102Z,95481.41
2022-11-07T17:56:56.658Z,95503.09
2022-11-07T17:59:25.043Z,95489.97
2022-11-07T18:01:54.847Z,95498.69
2022-11-07T18:04:23.930Z,95509.41
2022-11-07T18:06:52.519Z,95505.34
2022-11-07T18:09:23.732Z,95508.09
2022-11-07T18:11:53.075Z,95502.69
2022-11-07T18:14:21.134Z,95502.03
2022-11-07T18:16:51.662Z,95493.81
2022-11-07T18:19:22.462Z,95475.00
2022-11-07T18:21:51.642Z,95495.03
2022-11-07T18:24:21.105Z,95499.44
2022-11-07T18:26:51.903Z,95486.31
2022-11-07T18:29:23.997Z,95493.84
2022-11-07T18:31:57.359Z,95502.84
2022-11-07T18:34:26.956Z,95486.94
2022-11-07T18:36:54.963Z,95463.53
2022-11-07T18:39:24.351Z,95486.84
2022-11-07T18:41:56.165Z,95496.81
2022-11-07T18:44:24.200Z,95474.16
2022-11-07T18:46:52.484Z,95487.63
2022-11-07T18:49:20.481Z,95489.53
2022-11-07T18:51:50.334Z,95486.78
2022-11-07T18:54:19.100Z,95481.34
2022-11-07T18:56:46.964Z,95466.50
2022-11-07T18:59:14.866Z,95460.41
2022-11-07T19:01:43.190Z,95496.53
2022-11-07T19:04:13.951Z,95487.41
2022-11-07T19:06:57.292Z,95495.66
2022-11-07T19:09:30.009Z,95504.38
2022-11-07T19:11:58.802Z,95520.69
2022-11-07T19:14:28.059Z,95519.19
2022-11-07T19:16:56.447Z,95529.69
2022-11-07T19:19:26.569Z,95532.13
2022-11-07T19:21:55.399Z,95525.31
2022-11-07T19:24:23.669Z,95521.53
2022-11-07T19:26:53.619Z,95534.75
2022-11-07T19:29:24.452Z,95540.75
2022-11-07T19:31:52.943Z,95535.25
2022-11-07T19:34:21.214Z,95537.03
2022-11-07T19:36:49.423Z,95537.91
2022-11-07T19:39:17.481Z,95542.38
2022-11-07T19:41:45.627Z,95552.00
2022-11-07T19:44:15.435Z,95559.34
2022-11-07T19:46:43.827Z,95560.84
2022-11-07T19:49:12.297Z,95559.97
2022-11-07T19:51:41.470Z,95527.34
2022-11-07T19:54:10.956Z,95548.53
2022-11-07T19:56:39.946Z,95553.69
2022-11-07T19:59:10.801Z,95555.19
2022-11-07T20:01:40.839Z,95554.69
2022-11-07T20:04:09.642Z,95549.25
2022-11-07T20:06:39.989Z,95532.13
2022-11-07T20:09:10.344Z,95539.19
2022-11-07T20:11:39.078Z,95541.16
2022-11-07T20:14:07.913Z,95537.38
2022-11-07T20:16:38.020Z,95546.84
2022-11-07T20:19:08.674Z,95551.00
2022-11-07T20:21:37.181Z,95543.47
2022-11-07T20:24:09.150Z,95545.97
2022-11-07T20:26:38.761Z,95553.19
2022-11-07T20:29:07.442Z,95549.25
2022-11-07T20:31:38.197Z,95543.84
2022-11-07T20:34:09.416Z,95536.94
2022-11-07T20:36:37.586Z,95553.03
2022-11-07T20:39:06.373Z,95549.09
2022-11-07T20:41:34.901Z,95557.91
2022-11-07T20:44:06.229Z,95559.41
2022-11-07T20:46:36.611Z,95555.66
2022-11-07T20:49:10.125Z,95563.19
2022-11-07T20:51:38.623Z,95557.56
2022-11-07T20:54:07.311Z,95547.75
2022-11-07T20:56:35.627Z,95567.75
2022-11-07T20:59:04.429Z,95566.63
2022-11-07T21:01:36.558Z,95569.50
2022-11-07T21:04:06.417Z,95568.44
2022-11-07T21:06:38.972Z,95554.53
2022-11-07T21:09:07.909Z,95563.25
2022-11-07T21:11:36.340Z,95564.25
2022-11-07T21:14:11.093Z,95572.16
2022-11-07T21:16:39.842Z,95565.00
2022-11-07T21:19:08.940Z,95547.19
2022-11-07T21:21:38.851Z,95565.41
2022-11-07T21:24:07.421Z,95567.81
2022-11-07T21:26:39.101Z,95570.53
2022-11-07T21:29:10.014Z,95571.19
2022-11-07T21:31:40.010Z,95571.84
2022-11-07T21:34:09.886Z,95578.34
2022-11-07T21:36:39.396Z,95571.19
2022-11-07T21:39:08.781Z,95566.13
2022-11-07T21:41:41.128Z,95571.19
2022-11-07T21:44:09.268Z,95569.13
2022-11-07T21:46:37.702Z,95575.44
2022-11-07T21:49:06.809Z,95544.53
2022-11-07T21:51:36.554Z,95582.91
2022-11-07T21:54:07.627Z,95580.97
2022-11-07T21:56:39.034Z,95578.94
2022-11-07T21:59:09.445Z,95574.03
2022-11-07T22:01:38.685Z,95581.97
2022-11-07T22:04:10.947Z,95575.13
2022-11-07T22:06:41.581Z,95582.16
2022-11-07T22:09:15.435Z,95593.50
2022-11-07T22:11:44.017Z,95595.72
2022-11-07T22:14:14.876Z,95591.16
2022-11-07T22:16:43.415Z,95584.44
2022-11-07T22:19:12.859Z,95589.78
2022-11-07T22:21:41.805Z,95588.38
2022-11-07T22:24:11.587Z,95589.50
2022-11-07T22:26:39.898Z,95591.34
2022-11-07T22:29:08.635Z,95604.88
2022-11-07T22:31:36.919Z,95606.09
2022-11-07T22:34:05.273Z,95596.75
2022-11-07T22:36:34.627Z,95604.16
2022-11-07T22:39:02.851Z,95591.28
2022-11-07T22:41:33.276Z,95595.25
2022-11-07T22:44:01.501Z,95594.63
2022-11-07T22:46:32.008Z,95597.75
2022-11-07T22:49:01.157Z,95599.63
2022-11-07T22:51:31.477Z,95594.44
2022-11-07T22:54:00.827Z,95582.53
2022-11-07T22:56:30.512Z,95600.72
2022-11-07T22:59:01.624Z,95611.97
2022-11-07T23:01:31.794Z,95604.84
2022-11-07T23:04:00.838Z,95596.59
2022-11-07T23:06:30.548Z,95606.56
2022-11-07T23:09:00.903Z,95589.03
2022-11-07T23:11:48.308Z,95601.47
2022-11-07T23:14:21.579Z,95570.84
2022-11-07T23:16:52.147Z,95600.16
2022-11-07T23:19:21.874Z,95603.00
2022-11-07T23:21:52.239Z,95601.72
2022-11-07T23:24:21.662Z,95601.38
2022-11-07T23:26:50.310Z,95567.94
2022-11-07T23:29:24.311Z,95602.13
2022-11-07T23:31:53.498Z,95598.31
2022-11-07T23:34:23.172Z,95602.88
2022-11-07T23:36:52.863Z,95601.59
2022-11-07T23:39:23.829Z,95601.16
2022-11-07T23:41:52.118Z,95601.25
2022-11-07T23:44:22.177Z,95584.91
2022-11-07T23:47:07.980Z,95609.91
2022-11-07T23:49:53.806Z,95605.91
2022-11-07T23:52:22.378Z,95598.41
2022-11-07T23:55:08.111Z,95596.56
2022-11-07T23:57:57.283Z,95598.63
